createdAt,value
2022-10-23T00:00:33.972Z,13.30
2022-10-23T00:02:03.842Z,15.00
2022-10-23T00:04:00.103Z,15.10
2022-10-23T00:08:38.512Z,13.10
2022-10-23T00:10:07.428Z,16.10
2022-10-23T00:12:08.682Z,12.60
2022-10-23T00:14:08.425Z,14.70
2022-10-23T00:17:46.025Z,14.20
2022-10-23T00:20:28.476Z,12.30
2022-10-23T00:26:06.906Z,14.50
2022-10-23T00:29:33.770Z,9.50
2022-10-23T00:32:33.856Z,15.80
2022-10-23T00:34:02.590Z,15.30
2022-10-23T00:36:24.243Z,12.70
2022-10-23T00:38:42.301Z,16.30
2022-10-23T00:42:29.537Z,10.20
2022-10-23T00:43:58.560Z,15.20
2022-10-23T00:45:54.329Z,13.40
2022-10-23T00:49:50.376Z,11.00
2022-10-23T00:51:37.589Z,12.70
2022-10-23T00:56:55.469Z,13.30
2022-10-23T01:00:23.793Z,18.20
2022-10-23T01:02:13.933Z,11.90
2022-10-23T01:05:19.419Z,16.30
2022-10-23T01:07:08.011Z,14.20
2022-10-23T01:10:58.330Z,15.20
2022-10-23T01:13:55.428Z,14.80
2022-10-23T01:15:43.934Z,15.20
2022-10-23T01:17:47.982Z,11.30
2022-10-23T01:19:16.692Z,13.90
2022-10-23T01:27:52.417Z,17.40
2022-10-23T01:31:03.360Z,18.40
2022-10-23T01:39:57.743Z,13.30
2022-10-23T01:47:44.781Z,11.20
2022-10-23T01:49:45.417Z,11.50
2022-10-23T01:52:33.021Z,13.20
2022-10-23T02:00:00.411Z,15.50
2022-10-23T02:09:32.249Z,13.10
2022-10-23T02:12:23.172Z,12.80
2022-10-23T02:13:58.928Z,14.70
2022-10-23T02:16:20.620Z,14.90
2022-10-23T02:18:23.664Z,16.70
2022-10-23T02:20:55.340Z,16.90
2022-10-23T02:22:56.234Z,15.10
2022-10-23T02:24:27.019Z,15.80
2022-10-23T02:26:47.085Z,13.90
2022-10-23T02:38:00.611Z,15.40
2022-10-23T02:39:47.455Z,13.20
2022-10-23T02:41:47.807Z,15.30
2022-10-23T02:43:45.535Z,18.50
2022-10-23T02:47:55.414Z,17.00
2022-10-23T02:50:23.963Z,18.70
2022-10-23T02:51:52.919Z,12.00
2022-10-23T02:53:23.883Z,17.00
2022-10-23T02:55:43.493Z,14.40
2022-10-23T02:58:32.930Z,20.10
2022-10-23T03:00:01.847Z,14.20
2022-10-23T03:11:33.961Z,16.70
2022-10-23T03:15:27.634Z,16.30
2022-10-23T03:16:57.329Z,12.70
2022-10-23T03:18:57.803Z,13.60
2022-10-23T03:23:05.375Z,14.90
2022-10-23T03:26:16.129Z,18.90
2022-10-23T03:27:48.001Z,17.00
2022-10-23T03:36:35.250Z,17.50
2022-10-23T03:38:11.161Z,19.40
2022-10-23T03:39:38.848Z,15.40
2022-10-23T03:42:26.757Z,16.40
2022-10-23T03:49:00.387Z,17.20
2022-10-23T03:50:51.238Z,16.90
2022-10-23T03:52:48.038Z,14.00
2022-10-23T03:54:40.955Z,16.80
2022-10-23T03:58:35.269Z,13.10
2022-10-23T04:00:08.004Z,14.10
2022-10-23T04:01:57.790Z,12.10
2022-10-23T04:03:27.719Z,17.50
2022-10-23T04:05:31.680Z,15.40
2022-10-23T04:09:05.621Z,13.60
2022-10-23T04:10:34.499Z,13.70
2022-10-23T04:13:04.021Z,13.30
2022-10-23T04:16:51.443Z,14.70
2022-10-23T04:19:58.711Z,15.80
2022-10-23T04:22:02.709Z,14.30
2022-10-23T04:25:04.712Z,14.80
2022-10-23T04:27:54.041Z,14.10
2022-10-23T04:30:44.521Z,18.00
2022-10-23T04:32:12.266Z,12.30
2022-10-23T04:34:32.870Z,14.40
2022-10-23T04:36:01.895Z,15.00
2022-10-23T04:39:30.587Z,15.00
2022-10-23T04:41:00.176Z,16.30
2022-10-23T04:43:54.424Z,17.00
2022-10-23T04:45:22.151Z,16.00
2022-10-23T04:48:36.885Z,16.90
2022-10-23T04:50:04.893Z,15.70
2022-10-23T04:52:07.720Z,15.70
2022-10-23T04:53:55.445Z,13.50
2022-10-23T04:55:26.479Z,13.40
2022-10-23T04:56:53.597Z,13.60
2022-10-23T04:58:22.820Z,13.20
2022-10-23T04:59:51.531Z,14.70
2022-10-23T05:02:50.711Z,17.10
2022-10-23T05:04:19.343Z,14.60
2022-10-23T05:06:40.614Z,18.80
2022-10-23T05:08:17.172Z,15.10
2022-10-23T05:09:45.407Z,14.10
2022-10-23T05:12:47.023Z,14.50
2022-10-23T05:14:20.601Z,15.20
2022-10-23T05:17:07.461Z,13.20
2022-10-23T05:21:01.163Z,15.60
2022-10-23T05:22:54.512Z,14.50
2022-10-23T05:24:21.604Z,16.00
2022-10-23T05:26:12.241Z,12.00
2022-10-23T05:28:30.915Z,18.70
2022-10-23T05:29:59.274Z,17.60
2022-10-23T05:33:47.834Z,19.30
2022-10-23T05:35:48.715Z,17.70
2022-10-23T05:37:17.692Z,14.90
2022-10-23T05:38:46.153Z,16.40
2022-10-23T05:41:59.851Z,16.50
2022-10-23T05:43:58.010Z,14.10
2022-10-23T05:46:26.076Z,15.80
2022-10-23T05:49:26.366Z,17.70
2022-10-23T05:51:24.544Z,17.40
2022-10-23T05:55:00.443Z,18.50
2022-10-23T05:58:58.199Z,15.90
2022-10-23T06:00:29.093Z,16.60
2022-10-23T06:05:41.509Z,16.20
2022-10-23T06:08:50.124Z,19.10
2022-10-23T06:11:17.101Z,23.50
2022-10-23T06:13:08.583Z,18.20
2022-10-23T06:16:12.419Z,19.30
2022-10-23T06:17:40.871Z,14.40
2022-10-23T06:19:11.522Z,12.80
2022-10-23T06:21:12.315Z,16.00
2022-10-23T06:23:11.793Z,14.20
2022-10-23T06:24:41.222Z,15.70
2022-10-23T06:28:17.061Z,15.50
2022-10-23T06:32:13.712Z,16.70
2022-10-23T06:35:36.259Z,12.90
2022-10-23T06:38:02.188Z,14.90
2022-10-23T06:39:32.553Z,16.40
2022-10-23T06:42:00.043Z,12.90
2022-10-23T06:46:11.590Z,15.10
2022-10-23T06:47:36.975Z,14.90
2022-10-23T06:50:59.714Z,13.90
2022-10-23T06:54:58.233Z,17.00
2022-10-23T06:59:50.146Z,16.30
2022-10-23T07:03:08.457Z,17.10
2022-10-23T07:09:37.714Z,13.30
2022-10-23T07:11:27.405Z,11.60
2022-10-23T07:15:25.534Z,15.50
2022-10-23T07:18:14.159Z,12.80
2022-10-23T07:19:43.079Z,17.90
2022-10-23T07:22:31.606Z,12.30
2022-10-23T07:24:01.490Z,14.00
2022-10-23T07:28:23.379Z,12.40
2022-10-23T07:30:12.190Z,16.20
2022-10-23T07:32:15.082Z,12.40
2022-10-23T07:35:02.981Z,18.70
2022-10-23T07:36:33.647Z,12.90
2022-10-23T07:38:01.034Z,16.00
2022-10-23T07:40:02.248Z,13.40
2022-10-23T07:44:48.821Z,14.00
2022-10-23T07:48:07.817Z,18.60
2022-10-23T07:51:54.714Z,13.60
2022-10-23T07:56:08.794Z,15.80
2022-10-23T07:57:38.164Z,17.50
2022-10-23T08:02:52.185Z,10.00
2022-10-23T08:04:25.048Z,13.70
2022-10-23T08:07:10.432Z,15.00
2022-10-23T08:08:40.349Z,13.30
2022-10-23T08:10:32.063Z,11.80
2022-10-23T08:12:51.755Z,10.20
2022-10-23T08:14:20.720Z,11.10
2022-10-23T08:15:49.801Z,10.70
2022-10-23T08:18:47.856Z,11.60
2022-10-23T08:20:16.772Z,11.90
2022-10-23T08:21:47.628Z,14.20
2022-10-23T08:28:58.876Z,15.80
2022-10-23T08:36:24.206Z,11.60
2022-10-23T08:39:53.905Z,13.00
2022-10-23T08:43:21.090Z,10.50
2022-10-23T08:47:06.196Z,14.80
2022-10-23T08:49:36.283Z,13.30
2022-10-23T08:51:06.151Z,10.10
2022-10-23T08:53:06.251Z,12.50
2022-10-23T08:54:56.411Z,13.00
2022-10-23T08:56:54.034Z,13.00
2022-10-23T08:59:22.949Z,13.30
2022-10-23T09:01:54.338Z,11.80
2022-10-23T09:04:51.896Z,9.60
2022-10-23T09:07:52.277Z,7.70
2022-10-23T09:11:41.919Z,9.70
2022-10-23T09:13:13.753Z,9.70
2022-10-23T09:17:55.914Z,7.80
2022-10-23T09:19:56.267Z,9.50
2022-10-23T09:22:15.438Z,11.00
2022-10-23T09:23:45.519Z,6.40
2022-10-23T09:28:35.208Z,8.50
2022-10-23T09:30:07.575Z,11.50
2022-10-23T09:32:22.711Z,9.00
2022-10-23T09:34:50.562Z,8.80
2022-10-23T09:36:20.413Z,9.80
2022-10-23T09:38:20.158Z,7.80
2022-10-23T09:40:19.658Z,10.40
2022-10-23T09:42:20.209Z,11.90
2022-10-23T09:43:47.208Z,7.60
2022-10-23T09:45:46.169Z,13.20
2022-10-23T09:47:34.874Z,10.90
2022-10-23T09:50:54.307Z,9.60
2022-10-23T09:52:53.300Z,12.90
2022-10-23T09:54:22.215Z,8.90
2022-10-23T09:55:54.083Z,6.70
2022-10-23T09:57:23.116Z,9.60
2022-10-23T09:59:23.406Z,7.30
2022-10-23T10:00:55.320Z,7.40
2022-10-23T10:02:43.041Z,7.00
2022-10-23T10:04:14.751Z,8.50
2022-10-23T10:06:44.745Z,7.80
2022-10-23T10:09:31.226Z,9.50
2022-10-23T10:13:26.620Z,9.10
2022-10-23T10:15:28.864Z,10.50
2022-10-23T10:18:20.864Z,6.60
2022-10-23T10:20:42.444Z,10.80
2022-10-23T10:24:33.296Z,7.30
2022-10-23T10:28:56.433Z,6.70
2022-10-23T10:30:27.287Z,12.20
2022-10-23T10:33:30.420Z,9.00
2022-10-23T10:36:04.362Z,5.30
2022-10-23T10:40:50.494Z,6.80
2022-10-23T10:47:14.928Z,9.70
2022-10-23T10:48:41.420Z,7.80
2022-10-23T10:51:31.831Z,11.50
2022-10-23T10:53:21.935Z,12.80
2022-10-23T10:55:52.500Z,9.20
2022-10-23T11:02:51.511Z,7.10
2022-10-23T11:05:24.811Z,7.10
2022-10-23T11:06:50.876Z,7.20
2022-10-23T11:08:56.314Z,5.00
2022-10-23T11:18:43.046Z,6.60
2022-10-23T11:22:51.846Z,8.50
2022-10-23T11:24:20.554Z,6.60
2022-10-23T11:26:16.211Z,7.60
2022-10-23T11:29:18.150Z,13.60
2022-10-23T11:30:48.808Z,13.20
2022-10-23T11:32:36.942Z,12.90
2022-10-23T11:39:50.581Z,8.70
2022-10-23T11:41:51.189Z,5.60
2022-10-23T11:45:42.513Z,6.00
2022-10-23T11:47:11.325Z,9.90
2022-10-23T11:48:40.386Z,7.60
2022-10-23T11:50:10.342Z,8.20
2022-10-23T11:53:48.964Z,5.70
2022-10-23T11:56:17.856Z,7.80
2022-10-23T11:59:55.484Z,6.10
2022-10-23T12:01:26.511Z,4.40
2022-10-23T12:02:59.057Z,8.20
2022-10-23T12:05:12.895Z,5.40
2022-10-23T12:09:12.522Z,7.50
2022-10-23T12:13:04.027Z,5.00
2022-10-23T12:18:42.302Z,12.20
2022-10-23T12:20:12.894Z,7.20
2022-10-23T12:21:41.130Z,9.10
2022-10-23T12:23:11.044Z,7.90
2022-10-23T12:25:11.099Z,8.30
2022-10-23T12:31:56.501Z,5.40
2022-10-23T12:33:54.589Z,5.50
2022-10-23T12:35:56.665Z,6.10
2022-10-23T12:37:25.583Z,8.50
2022-10-23T12:38:55.969Z,7.20
2022-10-23T12:40:26.600Z,7.20
2022-10-23T12:43:55.606Z,4.70
2022-10-23T12:45:55.554Z,6.50
2022-10-23T12:47:56.518Z,4.10
2022-10-23T12:49:25.519Z,7.20
2022-10-23T12:52:50.412Z,4.50
2022-10-23T12:54:38.866Z,8.80
2022-10-23T12:56:36.944Z,5.60
2022-10-23T12:59:06.860Z,4.40
2022-10-23T13:02:35.755Z,6.30
2022-10-23T13:04:24.395Z,7.60
2022-10-23T13:06:24.447Z,3.90
2022-10-23T13:08:22.300Z,8.40
2022-10-23T13:09:52.592Z,8.80
2022-10-23T13:11:57.540Z,6.60
2022-10-23T13:13:28.404Z,4.60
2022-10-23T13:16:16.557Z,5.90
2022-10-23T13:17:47.550Z,5.30
2022-10-23T13:20:07.519Z,6.00
2022-10-23T13:21:38.350Z,5.00
2022-10-23T13:23:05.230Z,5.80
2022-10-23T13:24:54.067Z,5.60
2022-10-23T13:27:21.034Z,5.90
2022-10-23T13:30:41.875Z,6.60
2022-10-23T13:33:12.469Z,6.40
2022-10-23T13:35:21.087Z,5.70
2022-10-23T13:36:33.004Z,5.40
2022-10-23T13:39:25.708Z,6.20
2022-10-23T13:41:13.562Z,6.00
2022-10-23T13:44:11.070Z,8.40
2022-10-23T13:46:40.698Z,7.50
2022-10-23T13:48:08.772Z,6.00
2022-10-23T13:49:37.676Z,5.60
2022-10-23T13:51:32.494Z,8.50
2022-10-23T13:53:02.375Z,5.10
2022-10-23T13:54:33.226Z,7.30
2022-10-23T13:56:04.445Z,5.00
2022-10-23T14:00:07.232Z,4.00
2022-10-23T14:01:38.163Z,4.20
2022-10-23T14:03:31.633Z,4.90
2022-10-23T14:06:43.673Z,4.90
2022-10-23T14:08:32.424Z,8.70
2022-10-23T14:11:02.702Z,5.10
2022-10-23T14:14:58.879Z,6.40
2022-10-23T14:16:49.541Z,5.90
2022-10-23T14:18:16.464Z,3.40
2022-10-23T14:20:19.085Z,3.10
2022-10-23T14:21:49.236Z,3.50
2022-10-23T14:23:16.344Z,5.90
2022-10-23T14:28:12.017Z,9.20
2022-10-23T14:30:03.985Z,6.10
2022-10-23T14:31:59.562Z,5.10
2022-10-23T14:34:28.477Z,8.10
2022-10-23T14:37:08.820Z,5.60
2022-10-23T14:38:36.446Z,3.40
2022-10-23T14:43:45.395Z,5.90
2022-10-23T14:47:25.802Z,3.40
2022-10-23T14:49:01.327Z,3.10
2022-10-23T14:50:25.839Z,2.70
2022-10-23T14:52:58.362Z,6.80
2022-10-23T14:54:25.564Z,8.00
2022-10-23T14:56:26.345Z,2.80
2022-10-23T14:58:25.105Z,6.40
2022-10-23T15:02:22.894Z,5.20
2022-10-23T15:07:57.234Z,9.10
2022-10-23T15:09:56.003Z,5.00
2022-10-23T15:14:51.832Z,2.60
2022-10-23T15:16:18.911Z,6.20
2022-10-23T15:22:10.818Z,8.90
2022-10-23T15:23:37.862Z,6.20
2022-10-23T15:26:09.948Z,2.50
2022-10-23T15:29:59.819Z,6.10
2022-10-23T15:31:47.059Z,2.00
2022-10-23T15:33:19.205Z,3.40
2022-10-23T15:35:14.315Z,5.90
2022-10-23T15:38:45.283Z,4.70
2022-10-23T15:40:15.215Z,4.70
2022-10-23T15:42:17.873Z,3.20
2022-10-23T15:44:35.680Z,3.20
2022-10-23T15:46:06.517Z,9.40
2022-10-23T15:49:56.168Z,5.30
2022-10-23T15:52:24.891Z,6.30
2022-10-23T15:55:51.955Z,6.70
2022-10-23T15:58:20.772Z,6.20
2022-10-23T16:03:09.381Z,5.60
2022-10-23T16:05:36.286Z,6.20
2022-10-23T16:09:24.767Z,6.10
2022-10-23T16:14:51.141Z,6.40
2022-10-23T16:22:57.887Z,6.30
2022-10-23T16:30:08.148Z,11.60
2022-10-23T16:32:07.426Z,4.50
2022-10-23T16:34:35.499Z,9.30
2022-10-23T16:37:09.271Z,5.90
2022-10-23T16:39:08.684Z,10.80
2022-10-23T16:42:38.732Z,9.60
2022-10-23T16:44:57.659Z,4.10
2022-10-23T16:47:32.481Z,7.60
2022-10-23T16:50:19.245Z,10.90
2022-10-23T16:54:13.752Z,7.10
2022-10-23T16:55:40.692Z,8.00
2022-10-23T17:01:00.232Z,11.60
2022-10-23T17:02:29.011Z,6.30
2022-10-23T17:08:40.595Z,6.40
2022-10-23T17:10:10.533Z,6.20
2022-10-23T17:11:41.362Z,10.60
2022-10-23T17:13:43.775Z,8.70
2022-10-23T17:16:36.174Z,6.50
2022-10-23T17:20:53.618Z,7.70
2022-10-23T17:28:08.706Z,6.90
2022-10-23T17:31:42.557Z,6.00
2022-10-23T17:36:52.797Z,5.90
2022-10-23T17:42:15.738Z,8.30
2022-10-23T17:43:54.778Z,8.60
2022-10-23T17:45:40.699Z,4.20
2022-10-23T17:49:09.892Z,9.00
2022-10-23T17:51:08.703Z,5.70
2022-10-23T17:55:51.471Z,3.60
2022-10-23T18:01:34.073Z,4.80
2022-10-23T18:03:03.818Z,6.10
2022-10-23T18:05:55.670Z,8.50
2022-10-23T18:07:54.673Z,7.40
2022-10-23T18:09:26.529Z,9.60
2022-10-23T18:12:42.238Z,6.20
2022-10-23T18:15:34.557Z,6.70
2022-10-23T18:17:03.463Z,10.90
2022-10-23T18:21:02.018Z,4.90
2022-10-23T18:23:51.084Z,5.60
2022-10-23T18:26:20.361Z,7.30
2022-10-23T18:32:05.250Z,6.50
2022-10-23T18:35:25.914Z,12.80
2022-10-23T18:36:55.312Z,6.10
2022-10-23T18:38:23.261Z,6.10
2022-10-23T18:40:14.160Z,12.60
2022-10-23T18:41:45.014Z,7.70
2022-10-23T18:43:15.177Z,6.70
2022-10-23T18:44:41.920Z,5.60
2022-10-23T18:48:08.773Z,4.50
2022-10-23T18:49:37.924Z,7.40
2022-10-23T18:51:06.925Z,8.60
2022-10-23T18:52:36.852Z,10.40
2022-10-23T18:55:55.938Z,4.30
2022-10-23T18:57:45.421Z,3.80
2022-10-23T18:59:43.593Z,7.00
2022-10-23T19:03:31.206Z,4.80
2022-10-23T19:05:01.116Z,6.40
2022-10-23T19:07:03.049Z,6.30
2022-10-23T19:10:18.773Z,4.50
2022-10-23T19:13:38.098Z,5.00
2022-10-23T19:16:24.354Z,9.40
2022-10-23T19:22:11.829Z,4.10
2022-10-23T19:23:41.682Z,5.40
2022-10-23T19:25:11.894Z,7.90
2022-10-23T19:29:29.025Z,6.10
2022-10-23T19:32:27.849Z,6.60
2022-10-23T19:34:25.195Z,7.70
2022-10-23T19:36:44.587Z,7.70
2022-10-23T19:39:13.452Z,6.10
2022-10-23T19:40:43.401Z,6.40
2022-10-23T19:50:34.351Z,6.30
2022-10-23T19:56:12.969Z,6.20
2022-10-23T19:58:09.991Z,7.30
2022-10-23T20:01:08.610Z,8.00
2022-10-23T20:04:55.180Z,5.80
2022-10-23T20:06:24.208Z,6.10
2022-10-23T20:10:12.760Z,4.40
2022-10-23T20:12:32.864Z,6.60
2022-10-23T20:15:58.987Z,5.30
2022-10-23T20:17:57.862Z,7.30
2022-10-23T20:23:50.280Z,8.30
2022-10-23T20:27:07.743Z,5.30
2022-10-23T20:31:19.584Z,5.30
2022-10-23T20:33:20.426Z,8.80
2022-10-23T20:35:41.094Z,8.60
2022-10-23T20:37:38.184Z,5.20
2022-10-23T20:39:37.329Z,7.10
2022-10-23T20:42:35.536Z,5.60
2022-10-23T20:44:34.798Z,8.00
2022-10-23T20:47:03.005Z,4.80
2022-10-23T20:49:02.711Z,4.30
2022-10-23T20:51:54.996Z,8.50
2022-10-23T20:59:04.763Z,4.50
2022-10-23T21:00:34.705Z,5.30
2022-10-23T21:05:00.988Z,5.00
2022-10-23T21:07:18.670Z,9.00
2022-10-23T21:08:48.579Z,8.50
2022-10-23T21:12:18.688Z,7.30
2022-10-23T21:19:21.767Z,5.50
2022-10-23T21:20:50.643Z,7.60
2022-10-23T21:22:20.485Z,4.80
2022-10-23T21:24:19.536Z,9.60
2022-10-23T21:25:49.734Z,9.50
2022-10-23T21:27:20.079Z,7.20
2022-10-23T21:29:19.104Z,4.90
2022-10-23T21:33:06.595Z,4.40
2022-10-23T21:35:37.837Z,4.70
2022-10-23T21:38:52.997Z,4.80
2022-10-23T21:40:21.959Z,5.50
2022-10-23T21:43:40.057Z,7.90
2022-10-23T21:45:28.261Z,7.90
2022-10-23T21:48:28.768Z,4.50
2022-10-23T21:50:28.561Z,8.50
2022-10-23T21:54:15.519Z,6.50
2022-10-23T21:55:44.394Z,5.50
2022-10-23T21:58:32.846Z,6.00
2022-10-23T22:00:01.724Z,7.90
2022-10-23T22:04:27.958Z,3.40
2022-10-23T22:06:25.914Z,6.40
2022-10-23T22:11:39.458Z,5.40
2022-10-23T22:16:41.653Z,5.30
2022-10-23T22:18:40.500Z,7.20
2022-10-23T22:22:06.794Z,5.90
2022-10-23T22:24:07.191Z,6.30
2022-10-23T22:25:36.161Z,4.60
2022-10-23T22:33:11.361Z,6.70
2022-10-23T22:40:04.134Z,5.60
2022-10-23T22:42:03.446Z,5.10
2022-10-23T22:44:33.252Z,5.60
2022-10-23T22:46:32.196Z,4.90
2022-10-23T22:48:04.031Z,7.70
2022-10-23T22:50:36.421Z,3.80
2022-10-23T22:52:27.260Z,5.00
2022-10-23T22:54:07.193Z,4.00
2022-10-23T22:57:30.666Z,5.90
2022-10-23T23:00:26.814Z,3.80
2022-10-23T23:01:27.801Z,5.50
2022-10-23T23:02:26.757Z,5.90
2022-10-23T23:03:27.648Z,4.80
2022-10-23T23:04:57.137Z,6.60
2022-10-23T23:08:47.605Z,4.10
2022-10-23T23:12:53.100Z,5.80
2022-10-23T23:16:13.592Z,6.70
2022-10-23T23:19:49.373Z,5.30
2022-10-23T23:24:15.952Z,8.30
2022-10-23T23:28:04.251Z,6.20
2022-10-23T23:33:38.781Z,3.60
2022-10-23T23:37:05.139Z,8.00
2022-10-23T23:40:09.184Z,5.50
2022-10-23T23:43:25.997Z,6.10
2022-10-23T23:45:51.997Z,5.00
2022-10-23T23:49:32.310Z,8.30
2022-10-23T23:54:10.783Z,5.00
2022-10-23T23:56:01.209Z,8.00
